Time;durP1;ratioP1;P1;durP2;ratioP2;P2;SDS_P1;SDS_P2;PMS_P1;PMS_P2;Temp;Humidity;BMP_temperature;BMP_pressure;BME280_temperature;BME280_humidity;BME280_pressure;Samples;Min_cycle;Max_cycle;Signal;HPM_P1;HPM_P2
2020/12/11 00:01:38;;;;;;;0.60;0.50;;;1.70;99.90;;;2.46;100.00;-20748.91;5014411;28;20199;-67
2020/12/11 00:04:06;;;;;;;0.70;0.60;;;1.80;99.90;;;2.53;100.00;-20750.84;5007116;28;20691;-68
2020/12/11 00:06:32;;;;;;;0.60;0.50;;;1.80;99.90;;;2.60;100.00;-20752.66;4996721;28;20198;-67
2020/12/11 00:08:59;;;;;;;0.70;0.70;;;1.80;99.90;;;2.55;100.00;-20751.28;5000476;28;20188;-67
2020/12/11 00:11:28;;;;;;;0.70;0.70;;;1.90;99.90;;;2.57;100.00;-20751.84;4995237;28;20257;-68
2020/12/11 00:13:56;;;;;;;0.70;0.60;;;1.90;99.90;;;2.63;100.00;-20753.50;5011674;28;20190;-68
2020/12/11 00:16:23;;;;;;;0.70;0.60;;;1.80;99.90;;;2.58;100.00;-20752.13;5014577;28;20281;-67
2020/12/11 00:18:50;;;;;;;0.68;0.60;;;1.80;99.90;;;2.46;100.00;-20748.75;5007230;28;20559;-68
2020/12/11 00:21:18;;;;;;;0.60;0.60;;;1.80;99.90;;;2.46;100.00;-20748.91;4993942;28;20199;-68
2020/12/11 00:23:45;;;;;;;0.68;0.60;;;1.80;99.90;;;2.65;100.00;-20754.06;5028354;28;20206;-67
2020/12/11 00:26:14;;;;;;;0.60;0.50;;;1.80;99.90;;;2.42;100.00;-20747.94;5014705;28;20227;-67
2020/12/11 00:28:42;;;;;;;0.70;0.63;;;1.70;99.90;;;2.45;100.00;-20748.63;5014656;28;20702;-67
2020/12/11 00:31:09;;;;;;;0.70;0.60;;;1.80;99.90;;;2.54;100.00;-20751.00;5012272;28;20282;-67
2020/12/11 00:33:36;;;;;;;0.60;0.50;;;1.80;99.90;;;2.45;100.00;-20748.47;5014271;28;20272;-67
2020/12/11 00:36:03;;;;;;;0.70;0.60;;;1.80;99.90;;;2.51;100.00;-20750.16;5013339;28;20249;-69
2020/12/11 00:38:30;;;;;;;0.70;0.60;;;1.90;99.90;;;2.48;100.00;-20749.31;5014459;28;20261;-67
2020/12/11 00:40:57;;;;;;;0.60;0.50;;;1.90;99.90;;;2.67;100.00;-20754.63;5028940;28;20190;-67
2020/12/11 00:43:24;;;;;;;0.60;0.60;;;1.90;99.90;;;2.66;100.00;-20754.50;5014612;28;20553;-67
2020/12/11 00:45:53;;;;;;;0.70;0.60;;;1.90;99.90;;;2.60;100.00;-20752.81;5014403;28;20195;-68
2020/12/11 00:48:20;;;;;;;3.03;1.30;;;1.90;99.90;;;2.64;100.00;-20753.78;5013421;28;20675;-67
2020/12/11 00:50:47;;;;;;;0.70;0.60;;;1.90;99.90;;;2.77;100.00;-20757.28;5012283;28;20202;-67
2020/12/11 00:53:15;;;;;;;0.70;0.60;;;1.90;99.90;;;2.75;100.00;-20756.84;5012682;28;20207;-67
2020/12/11 00:55:43;;;;;;;0.65;0.50;;;2.00;99.90;;;2.73;100.00;-20756.16;5012370;28;20209;-67
2020/12/11 00:58:10;;;;;;;0.60;0.50;;;2.00;99.90;;;2.76;100.00;-20757.13;5013827;28;20210;-67
2020/12/11 01:00:37;;;;;;;0.70;0.50;;;2.00;99.90;;;2.67;100.00;-20754.75;5013333;28;20206;-68
2020/12/11 01:03:05;;;;;;;1.45;1.35;;;2.00;99.90;;;2.77;100.00;-20757.41;5014241;28;20214;-67
2020/12/11 01:05:35;;;;;;;0.70;0.60;;;2.00;99.90;;;2.74;100.00;-20756.59;5013863;28;20249;-67
2020/12/11 01:08:03;;;;;;;0.70;0.70;;;2.00;99.90;;;2.77;100.00;-20757.41;5012592;28;20271;-67
2020/12/11 01:10:30;;;;;;;0.70;0.60;;;2.00;99.90;;;2.72;100.00;-20756.03;5012942;28;20223;-68
2020/12/11 01:12:57;;;;;;;0.60;0.60;;;2.00;99.90;;;2.74;100.00;-20756.44;5012238;28;20649;-67
2020/12/11 01:15:24;;;;;;;0.70;0.60;;;2.00;99.90;;;2.70;100.00;-20755.47;4999600;28;20202;-68
2020/12/11 01:17:51;;;;;;;0.70;0.60;;;2.00;99.90;;;2.74;100.00;-20756.44;5012691;28;20690;-67
2020/12/11 01:20:19;;;;;;;0.70;0.60;;;2.00;99.90;;;2.60;100.00;-20752.81;5012299;28;20245;-67
2020/12/11 01:22:47;;;;;;;0.70;0.60;;;1.90;99.90;;;2.58;100.00;-20752.13;5012417;28;20678;-67
2020/12/11 01:25:14;;;;;;;0.80;0.73;;;1.90;99.90;;;2.65;100.00;-20754.06;5027944;28;20525;-67
2020/12/11 01:27:41;;;;;;;0.70;0.60;;;1.90;99.90;;;2.69;100.00;-20755.03;5012723;28;20561;-67
2020/12/11 01:30:07;;;;;;;0.70;0.60;;;1.90;99.90;;;2.60;100.00;-20752.66;5011677;28;20666;-67
2020/12/11 01:32:34;;;;;;;0.70;0.60;;;1.90;99.90;;;2.55;100.00;-20751.41;5010614;28;20209;-67
2020/12/11 01:35:02;;;;;;;0.68;0.50;;;1.90;99.90;;;2.73;100.00;-20756.16;5027279;28;20257;-68
2020/12/11 01:37:29;;;;;;;0.70;0.60;;;1.90;99.90;;;2.70;100.00;-20755.31;5011488;28;20199;-67
2020/12/11 01:39:56;;;;;;;0.70;0.60;;;1.90;99.90;;;2.66;100.00;-20754.50;5000851;28;20192;-67
2020/12/11 01:42:23;;;;;;;0.70;0.50;;;1.90;99.90;;;2.66;100.00;-20754.34;4997522;28;20198;-67
2020/12/11 01:44:52;;;;;;;0.70;0.50;;;1.90;99.90;;;2.50;100.00;-20749.88;5012622;28;20190;-67
2020/12/11 01:47:21;;;;;;;0.70;0.60;;;1.80;99.90;;;2.51;100.00;-20750.16;5011264;28;20201;-67
2020/12/11 01:49:50;;;;;;;0.70;0.60;;;1.80;99.90;;;2.53;100.00;-20750.72;5014687;28;20206;-67
2020/12/11 01:52:18;;;;;;;0.80;0.80;;;1.80;99.90;;;2.46;100.00;-20748.75;5014496;28;20191;-68
2020/12/11 01:54:47;;;;;;;1.05;0.95;;;1.80;99.90;;;2.50;100.00;-20749.88;5015846;28;20179;-68
2020/12/11 01:57:23;;;;;;;0.70;0.60;;;1.80;99.90;;;2.53;100.00;-20750.72;5015673;28;20194;-68
2020/12/11 01:59:54;;;;;;;0.90;0.90;;;1.80;99.90;;;2.52;100.00;-20750.56;5016110;28;20217;-67
2020/12/11 02:02:24;;;;;;;0.70;0.60;;;1.80;99.90;;;2.48;100.00;-20749.47;5015566;28;20191;-68
2020/12/11 02:04:58;;;;;;;0.68;0.60;;;1.90;99.90;;;2.64;100.00;-20753.94;5014163;28;20770;-67
2020/12/11 02:07:26;;;;;;;0.70;0.60;;;1.80;99.90;;;2.50;100.00;-20750.00;4988996;28;793612;-67
2020/12/11 02:09:55;;;;;;;0.70;0.60;;;1.80;99.90;;;2.65;100.00;-20754.06;5016604;28;20183;-68
2020/12/11 02:12:24;;;;;;;0.70;0.60;;;1.90;99.90;;;2.67;100.00;-20754.63;5014766;28;20203;-68
2020/12/11 02:14:52;;;;;;;0.80;0.80;;;1.80;99.90;;;2.46;100.00;-20748.75;4998457;28;20188;-67
2020/12/11 02:17:26;;;;;;;0.70;0.60;;;1.80;99.90;;;2.45;100.00;-20748.47;5005805;28;20277;-67
2020/12/11 02:19:55;;;;;;;0.70;0.60;;;1.80;99.90;;;2.48;100.00;-20749.31;5016528;28;20210;-67
2020/12/11 02:22:33;;;;;;;0.70;0.55;;;1.80;99.90;;;2.46;100.00;-20748.91;5016169;28;20670;-67
2020/12/11 02:25:03;;;;;;;1.52;1.42;;;1.80;99.90;;;2.48;100.00;-20749.31;5016402;28;20194;-69
2020/12/11 02:27:30;;;;;;;0.70;0.70;;;1.80;99.90;;;2.36;100.00;-20746.25;5015621;28;20209;-68
2020/12/11 02:29:57;;;;;;;0.70;0.60;;;1.70;99.90;;;2.46;100.00;-20748.91;5015011;28;20191;-66
2020/12/11 02:32:24;;;;;;;0.70;0.60;;;1.70;99.90;;;2.34;100.00;-20745.69;5016643;28;20245;-68
2020/12/11 02:34:51;;;;;;;0.70;0.70;;;1.70;99.90;;;2.30;100.00;-20744.44;5016338;28;20242;-70
2020/12/11 02:37:18;;;;;;;0.70;0.60;;;1.60;99.90;;;2.23;100.00;-20742.63;5013532;28;20555;-67
2020/12/11 02:39:46;;;;;;;0.70;0.50;;;1.60;99.90;;;2.15;100.00;-20740.38;5014746;28;20639;-67
2020/12/11 02:42:12;;;;;;;0.70;0.60;;;1.50;99.90;;;2.15;100.00;-20740.38;5016613;28;20203;-67
2020/12/11 02:44:39;;;;;;;0.70;0.60;;;1.60;99.90;;;2.11;100.00;-20739.28;5016186;28;20677;-67
2020/12/11 02:47:06;;;;;;;0.65;0.60;;;1.60;99.90;;;2.04;100.00;-20737.44;5014736;28;20199;-67
2020/12/11 02:49:33;;;;;;;0.70;0.60;;;1.60;99.90;;;1.99;100.00;-20735.91;5016022;28;20222;-67
2020/12/11 02:52:00;;;;;;;0.70;0.60;;;1.50;99.90;;;2.02;100.00;-20736.75;5015670;28;20214;-67
2020/12/11 02:54:27;;;;;;;0.70;0.60;;;1.50;99.90;;;1.99;100.00;-20735.91;5016600;28;20241;-67
2020/12/11 02:56:54;;;;;;;0.70;0.60;;;1.50;99.90;;;1.97;100.00;-20735.34;5016475;28;20199;-68
2020/12/11 02:59:21;;;;;;;0.63;0.60;;;1.50;99.90;;;1.92;100.00;-20734.25;5013881;28;20632;-67
2020/12/11 03:01:48;;;;;;;0.60;0.50;;;1.40;99.90;;;1.92;100.00;-20734.25;5011284;28;20258;-67
2020/12/11 03:04:15;;;;;;;0.68;0.60;;;1.30;99.90;;;1.90;100.00;-20733.69;5014790;28;20273;-67
2020/12/11 03:06:42;;;;;;;0.65;0.60;;;1.30;99.90;;;1.92;100.00;-20734.25;5014833;28;20269;-67
2020/12/11 03:09:10;;;;;;;0.70;0.60;;;1.40;99.90;;;1.94;100.00;-20734.78;5015708;28;20600;-67
2020/12/11 03:11:36;;;;;;;0.65;0.50;;;1.50;99.90;;;1.86;100.00;-20732.56;5015399;28;20222;-67
2020/12/11 03:14:04;;;;;;;0.70;0.57;;;1.40;99.90;;;1.89;100.00;-20733.25;5015738;28;20195;-67
2020/12/11 03:16:31;;;;;;;0.70;0.65;;;1.40;99.90;;;1.83;100.00;-20731.72;5015492;28;20191;-68
2020/12/11 03:18:58;;;;;;;1.40;0.93;;;1.30;99.90;;;1.80;100.00;-20730.75;5015382;28;20222;-67
2020/12/11 03:21:25;;;;;;;0.70;0.60;;;1.30;99.90;;;1.81;100.00;-20731.16;5014631;28;20215;-68
2020/12/11 03:23:52;;;;;;;0.68;0.60;;;1.30;99.90;;;1.79;100.00;-20730.59;5013926;28;20253;-68
2020/12/11 03:26:19;;;;;;;0.70;0.60;;;1.30;99.90;;;1.69;100.00;-20727.81;5015641;28;20187;-67
2020/12/11 03:28:47;;;;;;;0.70;0.60;;;1.20;99.90;;;1.80;100.00;-20730.88;5016477;28;20266;-67
2020/12/11 03:31:16;;;;;;;0.70;0.60;;;1.30;99.90;;;1.84;100.00;-20731.88;5015239;28;20257;-67
2020/12/11 03:33:42;;;;;;;0.70;0.60;;;1.30;99.90;;;1.79;100.00;-20730.59;5014663;28;20249;-67
2020/12/11 03:36:09;;;;;;;0.90;0.90;;;1.30;99.90;;;1.90;100.00;-20733.69;5015059;28;20198;-68
2020/12/11 03:38:36;;;;;;;0.70;0.60;;;1.40;99.90;;;1.93;100.00;-20734.38;5014273;28;20290;-67
2020/12/11 03:41:03;;;;;;;0.70;0.60;;;1.30;99.90;;;1.94;100.00;-20734.78;5014962;28;20290;-67
2020/12/11 03:43:33;;;;;;;0.70;0.60;;;1.30;99.90;;;1.93;100.00;-20734.53;5013312;28;20195;-67
2020/12/11 03:46:00;;;;;;;0.60;0.50;;;1.30;99.90;;;1.90;100.00;-20733.53;5015179;28;20639;-67
2020/12/11 03:48:28;;;;;;;0.60;0.60;;;1.40;99.90;;;1.93;100.00;-20734.53;5030411;28;20251;-67
2020/12/11 03:50:55;;;;;;;0.60;0.60;;;1.40;99.90;;;2.00;100.00;-20736.19;5015104;28;20222;-68
2020/12/11 03:53:21;;;;;;;0.60;0.60;;;1.40;99.90;;;2.04;100.00;-20737.31;5014838;28;20191;-68
2020/12/11 03:55:49;;;;;;;0.60;0.60;;;1.40;99.90;;;2.09;100.00;-20738.84;5014677;28;20241;-69
2020/12/11 03:58:15;;;;;;;0.60;0.50;;;1.50;99.90;;;2.01;100.00;-20736.47;5014451;28;20206;-68
2020/12/11 04:00:42;;;;;;;0.60;0.60;;;1.40;99.90;;;1.99;100.00;-20736.06;5014249;28;20278;-67
2020/12/11 04:03:12;;;;;;;0.70;0.60;;;1.40;99.90;;;1.98;100.00;-20735.63;5014828;28;20616;-68
2020/12/11 04:05:39;;;;;;;0.60;0.60;;;1.40;99.90;;;2.05;100.00;-20737.72;5014792;28;20222;-67
2020/12/11 04:08:06;;;;;;;0.70;0.60;;;1.40;99.90;;;2.12;100.00;-20739.53;5012456;28;20195;-67
2020/12/11 04:10:33;;;;;;;0.60;0.60;;;1.50;99.90;;;2.09;100.00;-20738.84;5014699;28;20277;-67
2020/12/11 04:13:00;;;;;;;0.70;0.60;;;1.50;99.90;;;2.10;100.00;-20739.13;5014020;28;20590;-68
2020/12/11 04:15:27;;;;;;;0.60;0.60;;;1.50;99.90;;;2.10;100.00;-20738.97;5012158;28;20205;-67
2020/12/11 04:17:53;;;;;;;0.77;0.77;;;1.50;99.90;;;2.03;100.00;-20737.03;5002033;28;20231;-68
2020/12/11 04:20:20;;;;;;;0.68;0.60;;;1.50;99.90;;;2.08;100.00;-20738.44;5007054;28;20191;-67
2020/12/11 04:22:49;;;;;;;0.70;0.60;;;1.50;99.90;;;2.03;100.00;-20737.03;5007254;28;20206;-68
2020/12/11 04:25:15;;;;;;;0.60;0.50;;;1.50;99.90;;;2.07;100.00;-20738.28;5014925;28;20266;-67
2020/12/11 04:27:42;;;;;;;0.70;0.70;;;1.50;99.90;;;2.04;100.00;-20737.31;5014826;28;20191;-70
2020/12/11 04:30:09;;;;;;;0.60;0.57;;;1.60;99.90;;;2.08;100.00;-20738.56;5003931;28;20597;-68
2020/12/11 04:32:36;;;;;;;0.70;0.60;;;1.50;99.90;;;2.09;100.00;-20738.72;5009073;28;20298;-68
2020/12/11 04:35:03;;;;;;;0.60;0.60;;;1.60;99.90;;;2.20;100.00;-20741.78;5003098;28;20990;-68
2020/12/11 04:37:30;;;;;;;0.70;0.60;;;1.60;99.90;;;2.30;100.00;-20744.44;5004965;28;20195;-68
2020/12/11 04:39:57;;;;;;;0.60;0.60;;;1.60;99.90;;;2.20;100.00;-20741.78;5013982;28;20690;-68
2020/12/11 04:42:26;;;;;;;0.60;0.60;;;1.60;99.90;;;2.30;100.00;-20744.44;5014269;28;20175;-68
2020/12/11 04:44:53;;;;;;;0.60;0.60;;;1.60;99.90;;;2.18;100.00;-20741.22;5014230;28;20604;-68
2020/12/11 04:47:21;;;;;;;0.60;0.60;;;1.60;99.90;;;2.16;100.00;-20740.81;5012257;28;20183;-67
2020/12/11 04:49:48;;;;;;;0.70;0.60;;;1.60;99.90;;;2.12;100.00;-20739.53;5013118;28;20393;-68
2020/12/11 04:52:20;;;;;;;1.83;1.45;;;1.60;99.90;;;2.15;100.00;-20740.38;5008359;28;20207;-67
2020/12/11 04:54:49;;;;;;;0.70;0.60;;;1.60;99.90;;;2.18;100.00;-20741.22;5006370;28;20233;-68
2020/12/11 04:57:25;;;;;;;0.70;0.60;;;1.60;99.90;;;2.12;100.00;-20739.53;5027782;28;20621;-68
2020/12/11 04:59:52;;;;;;;0.70;0.60;;;1.60;99.90;;;2.05;100.00;-20737.59;5012385;28;20210;-67
2020/12/11 05:02:19;;;;;;;0.70;0.60;;;1.50;99.90;;;2.03;100.00;-20737.19;5012017;28;20518;-68
2020/12/11 05:04:53;;;;;;;0.70;0.60;;;1.50;99.90;;;1.94;100.00;-20734.78;5010514;28;20215;-68
2020/12/11 05:07:20;;;;;;;0.70;0.60;;;1.40;99.90;;;2.01;100.00;-20736.63;5012213;28;20191;-68
2020/12/11 05:09:55;;;;;;;0.70;0.60;;;1.40;99.90;;;2.07;100.00;-20738.28;5012288;28;20197;-68
2020/12/11 05:12:23;;;;;;;0.70;0.60;;;1.50;99.90;;;2.04;100.00;-20737.31;5011132;28;20174;-68
2020/12/11 05:14:55;;;;;;;0.70;0.60;;;1.50;99.90;;;2.08;100.00;-20738.44;5013256;28;20229;-68
2020/12/11 05:17:28;;;;;;;0.60;0.60;;;1.50;99.90;;;1.98;100.00;-20735.63;5013678;28;20253;-67
2020/12/11 05:19:56;;;;;;;0.80;0.77;;;1.60;99.90;;;2.04;100.00;-20737.31;5012226;28;20218;-68
2020/12/11 05:22:25;;;;;;;0.70;0.70;;;1.60;99.90;;;1.82;100.00;-20731.31;5013378;28;20270;-67
2020/12/11 05:24:54;;;;;;;0.60;0.60;;;1.40;99.90;;;1.99;100.00;-20736.06;5013879;28;20217;-67
2020/12/11 05:27:31;;;;;;;0.70;0.60;;;1.40;99.90;;;2.10;100.00;-20739.13;5013170;28;20187;-70
2020/12/11 05:30:00;;;;;;;0.77;0.77;;;1.50;99.90;;;2.20;100.00;-20741.63;5010860;28;20198;-67
2020/12/11 05:32:39;;;;;;;1.30;1.20;;;1.50;99.90;;;2.34;100.00;-20745.69;5011629;28;20198;-67
2020/12/11 05:35:19;;;;;;;0.70;0.60;;;1.70;99.90;;;2.50;100.00;-20749.88;5010568;28;20213;-68
2020/12/11 05:37:49;;;;;;;0.60;0.60;;;1.70;99.90;;;2.58;100.00;-20752.13;5013897;28;20183;-68
2020/12/11 05:40:18;;;;;;;0.60;0.60;;;1.80;99.90;;;2.57;100.00;-20751.84;5010879;28;20222;-68
2020/12/11 05:43:10;;;;;;;0.70;0.60;;;1.80;99.90;;;2.56;100.00;-20751.69;5013804;28;20195;-68
2020/12/11 05:45:39;;;;;;;0.68;0.57;;;1.80;99.90;;;2.38;100.00;-20746.66;5013775;28;20193;-68
2020/12/11 05:48:07;;;;;;;0.70;0.60;;;1.70;99.90;;;2.29;100.00;-20744.28;5013433;28;20226;-68
2020/12/11 05:50:34;;;;;;;0.60;0.60;;;1.70;99.90;;;2.27;100.00;-20743.72;5013671;28;20278;-68
2020/12/11 05:53:01;;;;;;;0.68;0.60;;;1.60;99.90;;;2.26;100.00;-20743.47;5009980;28;20667;-68
2020/12/11 05:55:28;;;;;;;0.70;0.60;;;1.60;99.90;;;2.24;100.00;-20742.91;4994649;28;20667;-67
2020/12/11 05:57:58;;;;;;;0.60;0.60;;;1.70;99.90;;;2.25;100.00;-20743.19;4994916;28;20254;-68
2020/12/11 06:00:26;;;;;;;0.68;0.60;;;1.60;99.90;;;2.16;100.00;-20740.81;5013458;28;20195;-68
2020/12/11 06:02:55;;;;;;;0.60;0.60;;;1.60;99.90;;;2.19;100.00;-20741.50;5013423;28;20237;-67
2020/12/11 06:05:24;;;;;;;0.60;0.60;;;1.60;99.90;;;2.23;100.00;-20742.63;5013881;28;20274;-67
2020/12/11 06:07:52;;;;;;;0.70;0.60;;;1.60;99.90;;;2.30;100.00;-20744.56;5013196;28;20199;-67
2020/12/11 06:10:22;;;;;;;0.70;0.60;;;1.70;99.90;;;2.23;100.00;-20742.47;5013692;28;20698;-67
2020/12/11 06:12:50;;;;;;;0.60;0.60;;;1.70;99.90;;;2.27;100.00;-20743.59;5010205;28;20632;-68
2020/12/11 06:15:34;;;;;;;0.70;0.70;;;1.70;99.90;;;2.29;100.00;-20744.28;5013772;28;20198;-68
2020/12/11 06:18:08;;;;;;;0.80;0.80;;;1.70;99.90;;;2.35;100.00;-20745.81;5013113;28;20217;-67
2020/12/11 06:20:36;;;;;;;0.63;0.55;;;1.80;99.90;;;2.42;100.00;-20747.78;5011649;28;20201;-67
2020/12/11 06:23:23;;;;;;;0.68;0.60;;;1.80;99.90;;;2.35;100.00;-20745.97;5013488;28;20278;-67
2020/12/11 06:25:53;;;;;;;0.60;0.50;;;1.70;99.90;;;2.38;100.00;-20746.66;5013392;28;20179;-67
2020/12/11 06:28:42;;;;;;;0.60;0.60;;;1.70;99.90;;;2.18;100.00;-20741.38;5028722;28;20195;-67
2020/12/11 06:31:12;;;;;;;0.65;0.60;;;1.60;99.90;;;2.28;100.00;-20743.88;5012526;28;20552;-68
2020/12/11 06:33:43;;;;;;;0.70;0.70;;;1.60;99.90;;;2.28;100.00;-20744.00;5013118;28;20282;-68
2020/12/11 06:36:10;;;;;;;0.60;0.50;;;1.60;99.90;;;2.26;100.00;-20743.47;5016065;28;20171;-68
2020/12/11 06:38:46;;;;;;;0.70;0.60;;;1.60;99.90;;;2.27;100.00;-20743.59;5003045;28;20615;-68
2020/12/11 06:41:15;;;;;;;0.70;0.65;;;1.60;99.90;;;2.22;100.00;-20742.34;4997234;28;20175;-68
2020/12/11 06:43:45;;;;;;;0.60;0.60;;;1.60;99.90;;;2.33;100.00;-20745.41;4996959;28;20243;-68
2020/12/11 06:46:16;;;;;;;0.60;0.60;;;1.70;99.90;;;2.38;100.00;-20746.66;4996885;28;20258;-68
2020/12/11 06:49:06;;;;;;;0.63;0.60;;;1.70;99.90;;;2.48;100.00;-20749.31;5014981;28;20203;-67
2020/12/11 06:51:34;;;;;;;0.80;0.80;;;1.80;99.90;;;2.54;100.00;-20751.00;5016248;28;20230;-68
2020/12/11 06:54:01;;;;;;;0.70;0.57;;;1.90;99.90;;;2.53;100.00;-20750.72;5016388;28;20545;-68
2020/12/11 06:56:41;;;;;;;1.55;1.45;;;2.00;99.90;;;2.59;100.00;-20752.53;5016560;28;20721;-68
2020/12/11 06:59:22;;;;;;;1.08;1.08;;;1.90;99.90;;;2.76;100.00;-20757.00;5016244;28;20207;-68
2020/12/11 07:01:51;;;;;;;0.70;0.63;;;2.00;99.90;;;2.79;100.00;-20757.97;5016122;28;20663;-68
2020/12/11 07:04:18;;;;;;;0.60;0.60;;;2.10;99.90;;;2.76;100.00;-20757.13;5015954;28;20207;-68
2020/12/11 07:06:49;;;;;;;1.45;1.35;;;2.10;99.90;;;2.85;100.00;-20759.66;5015902;28;20223;-67
2020/12/11 07:09:16;;;;;;;0.60;0.50;;;2.10;99.90;;;2.93;100.00;-20761.75;5015003;28;20590;-68
2020/12/11 07:11:46;;;;;;;0.60;0.60;;;2.20;99.90;;;2.98;100.00;-20763.00;5016082;28;20662;-67
2020/12/11 07:14:13;;;;;;;0.70;0.60;;;2.20;99.90;;;2.96;100.00;-20762.44;5014710;28;20219;-68
2020/12/11 07:16:41;;;;;;;0.70;0.50;;;2.20;99.90;;;3.12;100.00;-20766.91;5016020;28;20183;-68
2020/12/11 07:19:09;;;;;;;0.60;0.60;;;2.30;99.90;;;3.16;100.00;-20768.03;5014276;28;20227;-69
2020/12/11 07:21:41;;;;;;;1.55;1.45;;;2.30;99.90;;;3.21;100.00;-20769.41;5014617;28;20207;-68
2020/12/11 07:24:08;;;;;;;0.75;0.75;;;2.40;99.90;;;3.21;100.00;-20769.41;5016242;28;20203;-68
2020/12/11 07:26:35;;;;;;;0.70;0.60;;;2.40;99.90;;;3.29;100.00;-20771.66;5016632;28;20507;-68
2020/12/11 07:29:04;;;;;;;0.70;0.60;;;2.40;99.90;;;3.34;100.00;-20773.03;5012262;28;20202;-69
2020/12/11 07:31:35;;;;;;;0.70;0.60;;;2.50;99.90;;;3.41;100.00;-20774.84;5006348;28;20268;-68
2020/12/11 07:34:12;;;;;;;0.70;0.60;;;2.50;99.90;;;3.42;100.00;-20775.00;5015464;28;20210;-69
2020/12/11 07:36:39;;;;;;;0.70;0.60;;;2.50;99.90;;;3.45;100.00;-20775.84;5015636;28;20259;-67
2020/12/11 07:39:13;;;;;;;0.88;0.88;;;2.60;99.90;;;3.49;100.00;-20776.94;5015718;28;20203;-69
2020/12/11 07:41:42;;;;;;;0.70;0.60;;;2.60;99.90;;;3.54;100.00;-20778.34;5015715;28;20662;-68
2020/12/11 07:44:10;;;;;;;0.70;0.60;;;2.60;99.90;;;3.70;100.00;-20782.81;5015825;28;20218;-68
2020/12/11 07:46:42;;;;;;;0.70;0.60;;;2.70;99.90;;;3.61;100.00;-20780.28;5003550;28;20195;-68
2020/12/11 07:49:09;;;;;;;1.08;0.98;;;2.70;99.90;;;3.90;100.00;-20788.25;5015214;28;20612;-68
2020/12/11 07:51:45;;;;;;;1.42;1.33;;;2.80;99.90;;;3.92;100.00;-20788.81;5014859;28;20187;-68
2020/12/11 07:54:12;;;;;;;0.70;0.70;;;2.90;99.90;;;3.99;100.00;-20790.63;5015268;28;20171;-68
2020/12/11 07:56:39;;;;;;;1.00;0.90;;;2.90;99.90;;;3.87;100.00;-20787.53;5015167;28;20183;-68
2020/12/11 07:59:09;;;;;;;0.70;0.60;;;2.90;99.90;;;4.00;100.00;-20790.88;5015165;28;20195;-68
2020/12/11 08:01:37;;;;;;;0.70;0.60;;;2.90;99.90;;;3.92;100.00;-20788.66;5015208;28;20258;-67
2020/12/11 08:04:04;;;;;;;1.75;1.65;;;3.00;99.90;;;4.08;100.00;-20793.13;5015098;28;20218;-68
2020/12/11 08:06:32;;;;;;;1.75;1.35;;;3.00;99.90;;;4.07;100.00;-20792.97;5005438;28;20294;-66
2020/12/11 08:09:11;;;;;;;0.70;0.60;;;3.00;99.90;;;4.24;100.00;-20797.59;4995264;28;20186;-65
2020/12/11 08:11:42;;;;;;;0.80;0.80;;;3.10;99.90;;;4.26;100.00;-20798.13;4995689;28;20566;-66
2020/12/11 08:14:09;;;;;;;0.70;0.60;;;3.10;99.90;;;4.07;100.00;-20792.97;4995889;28;20180;-66
2020/12/11 08:16:36;;;;;;;0.70;0.60;;;3.10;99.90;;;4.25;100.00;-20797.84;4995308;28;20722;-65
2020/12/11 08:19:09;;;;;;;0.70;0.70;;;3.20;99.90;;;4.24;100.00;-20797.59;4995155;28;20571;-67
2020/12/11 08:21:36;;;;;;;0.70;0.60;;;3.20;99.90;;;4.34;100.00;-20800.22;5004930;28;20236;-67
2020/12/11 08:24:04;;;;;;;0.70;0.60;;;3.20;99.90;;;4.34;100.00;-20800.38;5012965;28;20515;-66
2020/12/11 08:26:37;;;;;;;0.80;0.80;;;3.30;99.90;;;4.33;100.00;-20799.94;5014423;28;20433;-67
2020/12/11 08:29:06;;;;;;;0.70;0.60;;;3.30;99.90;;;4.28;100.00;-20798.69;5013382;28;20489;-67
2020/12/11 08:31:39;;;;;;;0.90;0.80;;;3.30;99.90;;;4.31;100.00;-20799.53;5014641;28;20919;-66
2020/12/11 08:34:09;;;;;;;0.70;0.60;;;3.30;99.90;;;4.44;100.00;-20802.88;5014488;28;20457;-67
2020/12/11 08:36:39;;;;;;;0.70;0.60;;;3.40;99.90;;;4.51;100.00;-20804.97;5012523;28;20229;-66
2020/12/11 08:39:17;;;;;;;0.77;0.77;;;3.50;99.90;;;4.67;100.00;-20809.28;4995292;28;20211;-67
2020/12/11 08:42:06;;;;;;;0.70;0.60;;;3.50;99.90;;;4.54;100.00;-20805.81;4994963;28;20203;-67
2020/12/11 08:47:23;;;;;;;0.70;0.60;;;3.60;99.90;;;4.57;100.00;-20806.63;5000982;28;20486;-66
2020/12/11 08:49:54;;;;;;;0.70;0.70;;;3.60;99.90;;;4.49;100.00;-20804.25;4994423;28;20493;-67
2020/12/11 08:52:23;;;;;;;0.70;0.60;;;3.70;99.90;;;4.87;100.00;-20814.56;5009209;28;20433;-67
2020/12/11 08:54:53;;;;;;;2.30;1.03;;;3.70;99.90;;;5.11;100.00;-20821.13;5014626;28;20449;-66
2020/12/11 08:57:25;;;;;;;1.87;0.97;;;3.80;99.90;;;5.00;100.00;-20818.19;5013577;28;20886;-67
2020/12/11 08:59:57;;;;;;;0.70;0.60;;;3.80;99.90;;;5.14;100.00;-20822.09;5014243;28;20458;-67
2020/12/11 09:02:26;;;;;;;0.70;0.60;;;3.90;99.90;;;5.04;100.00;-20819.31;5014226;28;20666;-66
2020/12/11 09:04:53;;;;;;;0.70;0.60;;;3.90;99.90;;;5.07;100.00;-20820.13;5013605;28;20603;-66
2020/12/11 09:07:35;;;;;;;0.70;0.63;;;3.90;99.90;;;5.26;100.00;-20825.44;5013580;28;20453;-66
2020/12/11 09:10:04;;;;;;;0.70;0.70;;;3.90;99.90;;;5.05;100.00;-20819.59;5013918;28;20509;-67
2020/12/11 09:12:33;;;;;;;0.70;0.70;;;3.90;99.90;;;4.96;100.00;-20817.09;5014250;28;20530;-67
2020/12/11 09:15:00;;;;;;;0.70;0.60;;;3.90;99.90;;;5.01;100.00;-20818.47;5013877;28;20426;-66
2020/12/11 09:17:28;;;;;;;1.47;1.37;;;3.90;99.90;;;5.05;100.00;-20819.59;5014090;28;20407;-67
2020/12/11 09:19:55;;;;;;;0.70;0.60;;;3.90;99.90;;;5.10;100.00;-20820.97;5013686;28;20465;-67
2020/12/11 09:22:22;;;;;;;0.70;0.60;;;3.90;99.90;;;5.03;100.00;-20819.03;5012282;28;20434;-66
2020/12/11 09:24:49;;;;;;;0.70;0.60;;;4.00;99.90;;;5.01;100.00;-20818.47;5013682;28;20461;-66
2020/12/11 09:27:18;;;;;;;0.70;0.60;;;4.00;99.90;;;5.16;100.00;-20822.66;5010630;28;20187;-66
2020/12/11 09:29:48;;;;;;;2.40;2.30;;;4.00;99.90;;;5.28;100.00;-20826.00;5013841;28;20191;-67
2020/12/11 09:32:24;;;;;;;0.70;0.60;;;4.00;99.90;;;5.27;100.00;-20825.56;5029001;28;20827;-66
2020/12/11 09:34:51;;;;;;;0.87;0.80;;;4.10;99.90;;;5.39;100.00;-20828.91;5013517;28;20456;-66
2020/12/11 09:37:18;;;;;;;0.70;0.60;;;4.20;99.90;;;5.28;100.00;-20826.00;5012240;28;20532;-66
2020/12/11 09:39:45;;;;;;;0.70;0.60;;;4.20;99.90;;;5.37;100.00;-20828.22;5013473;28;20457;-67
2020/12/11 09:42:56;;;;;;;0.70;0.60;;;4.20;99.90;;;5.60;100.00;-20834.63;5013705;28;20425;-67
2020/12/11 09:45:32;;;;;;;0.70;0.70;;;4.20;99.90;;;5.68;100.00;-20836.72;5012652;28;20442;-66
2020/12/11 09:48:12;;;;;;;0.80;0.60;;;4.30;99.90;;;5.57;100.00;-20833.78;5013039;28;20472;-66
2020/12/11 09:53:15;;;;;;;0.80;0.80;;;4.30;99.90;;;5.46;100.00;-20830.72;5010135;28;20437;-67
2020/12/11 09:55:47;;;;;;;0.80;0.60;;;4.40;99.90;;;5.60;100.00;-20834.47;5013683;28;20410;-67
2020/12/11 09:58:15;;;;;;;0.70;0.60;;;4.40;99.90;;;5.72;100.00;-20837.97;5013639;28;20425;-66
2020/12/11 10:00:46;;;;;;;0.70;0.60;;;4.50;99.90;;;5.66;100.00;-20836.16;5013224;28;20465;-66
2020/12/11 10:03:18;;;;;;;0.70;0.60;;;4.50;99.90;;;5.91;100.00;-20842.97;5011441;28;20437;-66
2020/12/11 10:05:46;;;;;;;1.83;1.73;;;4.50;99.90;;;5.66;100.00;-20836.28;4992531;28;20415;-67
2020/12/11 10:08:13;;;;;;;0.70;0.60;;;4.50;99.90;;;5.91;100.00;-20842.97;4993561;28;20888;-66
2020/12/11 10:10:41;;;;;;;0.70;0.60;;;4.60;99.90;;;5.77;100.00;-20839.34;4996156;28;20521;-66
2020/12/11 10:13:08;;;;;;;0.70;0.50;;;4.60;99.90;;;5.81;100.00;-20840.47;4997611;28;20430;-67
2020/12/11 10:15:35;;;;;;;0.70;0.67;;;4.50;99.90;;;5.85;100.00;-20841.28;4998024;28;20415;-67
2020/12/11 10:18:05;;;;;;;0.70;0.70;;;4.60;99.90;;;5.76;100.00;-20839.06;4997057;28;20454;-66
2020/12/11 10:20:34;;;;;;;1.43;0.97;;;4.60;99.90;;;6.03;100.00;-20846.44;4998233;28;20997;-67
2020/12/11 10:23:02;;;;;;;0.93;0.93;;;4.60;99.90;;;6.00;100.00;-20845.47;4997265;28;20936;-67
2020/12/11 10:25:29;;;;;;;1.20;1.10;;;4.70;99.90;;;6.03;100.00;-20846.44;4997737;28;20482;-67
2020/12/11 10:27:56;;;;;;;0.70;0.60;;;4.80;99.90;;;6.07;100.00;-20847.28;4997330;28;20450;-67
2020/12/11 10:30:24;;;;;;;0.70;0.60;;;4.80;99.90;;;6.27;100.00;-20852.97;4998440;28;20933;-67
2020/12/11 10:32:55;;;;;;;0.70;0.60;;;4.90;99.90;;;6.19;100.00;-20850.75;5016739;28;20492;-67
2020/12/11 10:35:24;;;;;;;1.07;0.97;;;4.80;99.90;;;6.04;100.00;-20846.72;5016903;28;20504;-66